createdAt,value
2023-05-06T00:01:41.856Z,7.68
2023-05-06T00:04:08.715Z,7.65
2023-05-06T00:06:37.530Z,7.40
2023-05-06T00:09:04.470Z,7.22
2023-05-06T00:11:31.600Z,7.95
2023-05-06T00:13:58.360Z,7.50
2023-05-06T00:16:25.566Z,6.72
2023-05-06T00:18:52.441Z,7.07
2023-05-06T00:21:19.489Z,7.75
2023-05-06T00:23:46.258Z,6.97
2023-05-06T00:26:13.404Z,7.18
2023-05-06T00:28:40.176Z,7.93
2023-05-06T00:31:07.353Z,6.93
2023-05-06T00:33:34.253Z,7.47
2023-05-06T00:36:02.359Z,6.50
2023-05-06T00:38:29.431Z,7.80
2023-05-06T00:40:56.519Z,7.75
2023-05-06T00:43:23.283Z,6.60
2023-05-06T00:45:54.236Z,7.18
2023-05-06T00:48:21.626Z,6.55
2023-05-06T00:50:49.288Z,7.03
2023-05-06T00:53:19.829Z,7.22
2023-05-06T00:55:48.034Z,7.65
2023-05-06T00:58:15.097Z,6.60
2023-05-06T01:00:42.437Z,6.78
2023-05-06T01:03:09.509Z,6.95
2023-05-06T01:06:16.255Z,7.25
2023-05-06T01:08:57.608Z,7.00
2023-05-06T01:11:33.099Z,6.90
2023-05-06T01:14:04.080Z,7.00
2023-05-06T01:16:34.776Z,6.78
2023-05-06T01:19:02.368Z,7.03
2023-05-06T01:21:34.794Z,6.57
2023-05-06T01:24:02.291Z,6.55
2023-05-06T01:26:29.344Z,6.43
2023-05-06T01:28:57.493Z,6.50
2023-05-06T01:31:32.159Z,6.95
2023-05-06T01:34:21.774Z,6.07
2023-05-06T01:37:11.054Z,6.45
2023-05-06T01:39:41.503Z,6.55
2023-05-06T01:42:10.140Z,6.40
2023-05-06T01:44:39.029Z,6.47
2023-05-06T01:47:08.874Z,6.78
2023-05-06T01:49:36.466Z,6.07
2023-05-06T01:52:03.901Z,5.72
2023-05-06T01:54:30.800Z,6.03
2023-05-06T01:56:57.845Z,6.13
2023-05-06T01:59:24.740Z,6.57
2023-05-06T02:01:51.833Z,6.22
2023-05-06T02:04:18.746Z,6.00
2023-05-06T02:06:45.834Z,7.00
2023-05-06T02:09:12.697Z,6.38
2023-05-06T02:11:40.041Z,6.30
2023-05-06T02:14:06.821Z,5.97
2023-05-06T02:16:33.960Z,5.85
2023-05-06T02:19:00.919Z,6.55
2023-05-06T02:21:28.271Z,6.97
2023-05-06T02:23:55.020Z,6.55
2023-05-06T02:26:22.109Z,6.20
2023-05-06T02:28:48.920Z,6.60
2023-05-06T02:31:16.455Z,6.53
2023-05-06T02:33:46.717Z,7.35
2023-05-06T02:36:13.785Z,6.57
2023-05-06T02:38:40.857Z,7.00
2023-05-06T02:41:07.922Z,7.15
2023-05-06T02:43:34.866Z,8.13
2023-05-06T02:46:02.070Z,6.57
2023-05-06T02:48:29.045Z,6.20
2023-05-06T02:50:56.151Z,7.38
2023-05-06T02:53:22.956Z,7.00
2023-05-06T02:55:50.078Z,6.82
2023-05-06T02:58:16.911Z,7.15
2023-05-06T03:00:47.011Z,7.35
2023-05-06T03:03:13.853Z,6.85
2023-05-06T03:05:41.322Z,7.38
2023-05-06T03:08:08.082Z,7.47
2023-05-06T03:10:35.418Z,7.38
2023-05-06T03:13:02.398Z,7.50
2023-05-06T03:15:29.703Z,7.30
2023-05-06T03:17:56.516Z,8.38
2023-05-06T03:20:23.681Z,6.93
2023-05-06T03:22:50.709Z,6.25
2023-05-06T03:25:17.812Z,7.15
2023-05-06T03:27:44.592Z,6.88
2023-05-06T03:30:12.070Z,7.18
2023-05-06T03:32:38.824Z,6.57
2023-05-06T03:35:07.510Z,7.05
2023-05-06T03:37:34.382Z,6.75
2023-05-06T03:40:04.206Z,7.15
2023-05-06T03:42:31.305Z,7.63
2023-05-06T03:44:58.412Z,7.93
2023-05-06T03:47:25.330Z,6.93
2023-05-06T03:49:52.535Z,6.45
2023-05-06T03:52:19.460Z,7.18
2023-05-06T03:54:46.529Z,7.43
2023-05-06T03:57:13.413Z,7.53
2023-05-06T03:59:40.480Z,6.72
2023-05-06T04:02:07.394Z,6.95
2023-05-06T04:04:34.750Z,7.78
2023-05-06T04:07:01.648Z,6.63
2023-05-06T04:09:28.787Z,7.00
2023-05-06T04:11:56.995Z,6.90
2023-05-06T04:14:24.090Z,6.57
2023-05-06T04:16:50.913Z,7.38
2023-05-06T04:19:18.043Z,8.20
2023-05-06T04:21:44.846Z,7.65
2023-05-06T04:24:11.974Z,7.18
2023-05-06T04:26:38.774Z,6.93
2023-05-06T04:29:05.859Z,7.10
2023-05-06T04:31:34.418Z,7.90
2023-05-06T04:34:01.714Z,7.40
2023-05-06T04:36:28.559Z,7.18
2023-05-06T04:38:55.690Z,7.28
2023-05-06T04:41:23.723Z,7.90
2023-05-06T04:43:51.660Z,7.10
2023-05-06T04:46:18.770Z,7.40
2023-05-06T04:48:46.011Z,6.80
2023-05-06T04:51:13.254Z,7.40
2023-05-06T04:53:41.267Z,7.38
2023-05-06T04:56:08.706Z,8.40
2023-05-06T04:58:36.015Z,8.88
2023-05-06T05:01:06.545Z,7.45
2023-05-06T05:03:33.672Z,7.45
2023-05-06T05:06:00.600Z,7.68
2023-05-06T05:08:27.876Z,7.50
2023-05-06T05:10:54.684Z,7.55
2023-05-06T05:13:21.803Z,7.47
2023-05-06T05:15:48.610Z,8.25
2023-05-06T05:18:17.218Z,7.38
2023-05-06T05:20:44.053Z,7.50
2023-05-06T05:23:11.413Z,8.70
2023-05-06T05:25:38.271Z,8.73
2023-05-06T05:28:05.692Z,8.25
2023-05-06T05:30:32.516Z,7.35
2023-05-06T05:32:59.764Z,7.63
2023-05-06T05:35:26.674Z,7.45
2023-05-06T05:37:53.971Z,6.80
2023-05-06T05:40:20.954Z,7.25
2023-05-06T05:42:48.002Z,8.13
2023-05-06T05:45:14.913Z,7.47
2023-05-06T05:47:42.021Z,7.32
2023-05-06T05:50:09.136Z,7.50
2023-05-06T05:52:36.541Z,6.60
2023-05-06T05:55:03.488Z,7.22
2023-05-06T05:57:30.809Z,8.60
2023-05-06T05:59:58.382Z,7.35
2023-05-06T06:02:25.616Z,7.38
2023-05-06T06:04:52.581Z,6.63
2023-05-06T06:07:19.955Z,6.65
2023-05-06T06:09:46.937Z,6.53
2023-05-06T06:12:15.481Z,7.00
2023-05-06T06:14:45.841Z,6.53
2023-05-06T06:17:12.974Z,6.60
2023-05-06T06:19:39.729Z,6.93
2023-05-06T06:22:06.832Z,7.72
2023-05-06T06:24:34.904Z,6.18
2023-05-06T06:27:02.364Z,6.55
2023-05-06T06:29:29.604Z,7.03
2023-05-06T06:31:58.138Z,6.88
2023-05-06T06:34:25.545Z,6.97
2023-05-06T06:36:54.757Z,6.35
2023-05-06T06:39:21.585Z,7.07
2023-05-06T06:41:48.774Z,8.02
2023-05-06T06:44:15.611Z,7.47
2023-05-06T06:46:45.043Z,6.85
2023-05-06T06:49:11.881Z,6.47
2023-05-06T06:51:39.033Z,7.18
2023-05-06T06:54:05.984Z,7.13
2023-05-06T06:56:33.158Z,6.35
2023-05-06T06:59:02.575Z,6.70
2023-05-06T07:01:29.759Z,7.70
2023-05-06T07:03:56.615Z,6.75
2023-05-06T07:06:23.777Z,7.18
2023-05-06T07:08:50.590Z,7.18
2023-05-06T07:11:17.680Z,6.63
2023-05-06T07:13:44.456Z,6.68
2023-05-06T07:16:12.619Z,6.78
2023-05-06T07:18:39.531Z,7.10
2023-05-06T07:21:06.610Z,6.78
2023-05-06T07:23:33.420Z,7.18
2023-05-06T07:26:00.628Z,7.65
2023-05-06T07:28:27.496Z,6.07
2023-05-06T07:30:54.619Z,6.60
2023-05-06T07:33:22.465Z,6.57
2023-05-06T07:35:49.506Z,7.28
2023-05-06T07:38:16.301Z,7.32
2023-05-06T07:40:43.407Z,6.32
2023-05-06T07:43:10.205Z,6.35
2023-05-06T07:45:37.378Z,7.05
2023-05-06T07:48:04.523Z,5.93
2023-05-06T07:50:31.934Z,7.40
2023-05-06T07:53:00.152Z,8.43
2023-05-06T07:55:28.113Z,7.07
2023-05-06T07:57:54.890Z,6.22
2023-05-06T08:00:22.025Z,6.95
2023-05-06T08:02:48.909Z,6.75
2023-05-06T08:05:17.312Z,6.55
2023-05-06T08:07:44.233Z,6.40
2023-05-06T08:10:11.401Z,6.78
2023-05-06T08:12:38.429Z,7.22
2023-05-06T08:15:07.381Z,7.78
2023-05-06T08:17:34.210Z,6.63
2023-05-06T08:20:01.402Z,6.93
2023-05-06T08:22:28.289Z,7.53
2023-05-06T08:24:58.761Z,7.38
2023-05-06T08:27:25.713Z,6.82
2023-05-06T08:29:52.833Z,7.63
2023-05-06T08:32:19.698Z,6.30
2023-05-06T08:34:46.915Z,7.53
2023-05-06T08:37:13.880Z,7.22
2023-05-06T08:39:41.091Z,6.85
2023-05-06T08:42:11.464Z,7.50
2023-05-06T08:44:38.785Z,6.45
2023-05-06T08:47:05.727Z,7.40
2023-05-06T08:49:32.942Z,6.80
2023-05-06T08:52:03.844Z,7.43
2023-05-06T08:54:35.114Z,7.88
2023-05-06T08:57:06.484Z,4.50
2023-05-06T08:59:35.517Z,7.18
2023-05-06T09:02:03.549Z,7.07
2023-05-06T09:04:31.288Z,5.93
2023-05-06T09:06:59.120Z,6.60
2023-05-06T09:09:26.441Z,5.88
2023-05-06T09:11:57.707Z,6.30
2023-05-06T09:14:24.726Z,6.22
2023-05-06T09:16:53.034Z,6.97
2023-05-06T09:19:21.580Z,7.97
2023-05-06T09:21:50.925Z,7.00
2023-05-06T09:24:24.463Z,7.47
2023-05-06T09:26:55.501Z,7.50
2023-05-06T09:29:22.345Z,7.47
2023-05-06T09:31:49.768Z,6.07
2023-05-06T09:34:18.097Z,6.75
2023-05-06T09:36:45.470Z,5.78
2023-05-06T09:39:12.348Z,5.53
2023-05-06T09:41:39.509Z,5.20
2023-05-06T09:44:06.586Z,5.05
2023-05-06T09:46:33.796Z,4.25
2023-05-06T09:49:01.601Z,4.18
2023-05-06T09:51:31.014Z,5.60
2023-05-06T09:53:59.236Z,11.70
2023-05-06T09:56:26.925Z,4.80
2023-05-06T09:58:55.119Z,5.55
2023-05-06T10:01:35.333Z,4.97
2023-05-06T10:04:10.325Z,4.53
2023-05-06T10:06:40.306Z,4.20
2023-05-06T10:09:09.160Z,4.50
2023-05-06T10:11:36.908Z,3.08
2023-05-06T10:14:04.272Z,4.18
2023-05-06T10:16:33.666Z,3.60
2023-05-06T10:19:02.296Z,4.82
2023-05-06T10:21:34.497Z,3.40
2023-05-06T10:24:07.415Z,3.78
2023-05-06T10:29:07.323Z,4.30
2023-05-06T10:31:35.159Z,4.47
2023-05-06T10:34:05.205Z,6.90
2023-05-06T10:36:36.284Z,4.15
2023-05-06T10:39:04.715Z,5.57
2023-05-06T10:41:33.389Z,6.68
2023-05-06T10:44:00.364Z,2.47
2023-05-06T10:46:28.702Z,3.70
2023-05-06T10:49:04.720Z,4.55
2023-05-06T10:51:33.502Z,3.83
2023-05-06T10:54:08.697Z,3.72
2023-05-06T10:56:59.921Z,3.65
2023-05-06T10:59:31.074Z,4.82
2023-05-06T11:02:04.633Z,4.75
2023-05-06T11:04:31.981Z,4.88
2023-05-06T11:07:15.401Z,4.20
2023-05-06T11:09:59.719Z,4.28
2023-05-06T11:12:52.827Z,3.88
2023-05-06T11:15:39.922Z,4.03
2023-05-06T11:18:25.834Z,3.58
2023-05-06T11:21:18.666Z,3.90
2023-05-06T11:23:54.602Z,3.95
2023-05-06T11:26:21.388Z,4.28
2023-05-06T11:28:50.408Z,3.85
2023-05-06T11:31:17.725Z,3.80
2023-05-06T11:33:49.394Z,3.55
2023-05-06T11:36:18.289Z,4.25
2023-05-06T11:38:56.293Z,4.60
2023-05-06T11:41:25.566Z,4.18
2023-05-06T11:43:53.610Z,4.97
2023-05-06T11:46:22.750Z,4.72
2023-05-06T11:48:50.559Z,3.83
2023-05-06T11:51:22.729Z,4.80
2023-05-06T11:53:49.849Z,4.20
2023-05-06T11:56:16.703Z,3.33
2023-05-06T11:58:44.159Z,3.90
2023-05-06T12:01:10.948Z,3.97
2023-05-06T12:03:38.143Z,3.75
2023-05-06T12:06:05.527Z,4.20
2023-05-06T12:08:37.108Z,5.30
2023-05-06T12:11:10.407Z,3.75
2023-05-06T12:13:37.885Z,3.50
2023-05-06T12:16:06.319Z,3.15
2023-05-06T12:18:33.967Z,3.25
2023-05-06T12:21:04.248Z,3.47
2023-05-06T12:23:31.709Z,3.10
2023-05-06T12:26:04.454Z,3.63
2023-05-06T12:28:33.180Z,3.95
2023-05-06T12:31:17.463Z,3.33
2023-05-06T12:33:46.616Z,3.17
2023-05-06T12:36:16.136Z,3.30
2023-05-06T12:38:53.735Z,3.22
2023-05-06T12:41:21.402Z,4.43
2023-05-06T12:43:48.597Z,2.85
2023-05-06T12:46:16.821Z,4.07
2023-05-06T12:48:57.752Z,3.50
2023-05-06T12:51:25.027Z,3.45
2023-05-06T12:53:52.747Z,3.28
2023-05-06T12:56:20.819Z,3.97
2023-05-06T12:58:57.840Z,3.80
2023-05-06T13:01:24.740Z,5.22
2023-05-06T13:03:52.682Z,3.25
2023-05-06T13:06:19.559Z,3.83
2023-05-06T13:08:46.646Z,3.60
2023-05-06T13:11:13.553Z,3.78
2023-05-06T13:13:40.996Z,3.50
2023-05-06T13:16:09.020Z,3.78
2023-05-06T13:18:36.166Z,3.63
2023-05-06T13:21:03.916Z,3.83
2023-05-06T13:23:31.757Z,3.47
2023-05-06T13:26:04.771Z,3.20
2023-05-06T13:28:33.727Z,3.28
2023-05-06T13:31:00.550Z,3.75
2023-05-06T13:33:27.673Z,2.90
2023-05-06T13:35:54.487Z,3.20
2023-05-06T13:38:21.865Z,3.05
2023-05-06T13:40:52.886Z,4.38
2023-05-06T13:43:26.388Z,3.65
2023-05-06T13:45:54.330Z,4.15
2023-05-06T13:48:21.482Z,4.32
2023-05-06T13:50:48.373Z,4.32
2023-05-06T13:53:15.875Z,4.22
2023-05-06T13:55:43.080Z,4.97
2023-05-06T13:58:11.202Z,3.90
2023-05-06T14:00:38.471Z,4.13
2023-05-06T14:03:05.805Z,4.63
2023-05-06T14:05:32.792Z,3.80
2023-05-06T14:08:00.111Z,3.90
2023-05-06T14:10:27.012Z,4.43
2023-05-06T14:12:54.099Z,4.15
2023-05-06T14:15:21.048Z,4.30
2023-05-06T14:17:48.170Z,4.20
2023-05-06T14:20:15.070Z,4.43
2023-05-06T14:22:42.230Z,4.45
2023-05-06T14:25:09.941Z,4.30
2023-05-06T14:27:39.824Z,4.30
2023-05-06T14:30:09.330Z,5.03
2023-05-06T14:32:37.447Z,4.70
2023-05-06T14:35:04.704Z,4.50
2023-05-06T14:37:31.755Z,5.35
2023-05-06T14:39:58.551Z,5.38
2023-05-06T14:42:25.757Z,5.07
2023-05-06T14:44:52.613Z,5.53
2023-05-06T14:47:19.671Z,5.70
2023-05-06T14:49:46.460Z,6.47
2023-05-06T14:52:13.588Z,6.35
2023-05-06T14:54:42.660Z,6.30
2023-05-06T14:57:10.682Z,5.97
2023-05-06T14:59:38.419Z,6.18
2023-05-06T15:02:07.993Z,6.05
2023-05-06T15:04:35.634Z,6.45
2023-05-06T15:07:03.079Z,6.97
2023-05-06T15:09:31.505Z,6.63
2023-05-06T15:11:58.779Z,5.80
2023-05-06T15:14:25.849Z,6.15
2023-05-06T15:16:56.422Z,6.32
2023-05-06T15:19:23.312Z,5.82
2023-05-06T15:21:51.019Z,6.40
2023-05-06T15:24:17.822Z,6.55
2023-05-06T15:26:44.933Z,7.47
2023-05-06T15:29:12.062Z,7.05
2023-05-06T15:31:40.901Z,6.95
2023-05-06T15:34:09.865Z,7.10
2023-05-06T15:36:37.392Z,7.10
2023-05-06T15:39:04.959Z,6.05
2023-05-06T15:41:33.697Z,6.38
2023-05-06T15:44:02.277Z,6.40
2023-05-06T15:46:30.779Z,6.40
2023-05-06T15:49:22.390Z,5.90
2023-05-06T15:51:45.527Z,6.28
2023-05-06T15:54:13.118Z,6.82
2023-05-06T15:56:41.323Z,6.82
2023-05-06T15:59:09.080Z,7.25
2023-05-06T16:02:18.914Z,6.63
2023-05-06T16:04:23.986Z,5.85
2023-05-06T16:06:51.858Z,4.95
2023-05-06T16:09:18.720Z,5.72
2023-05-06T16:11:45.774Z,6.13
2023-05-06T16:14:13.237Z,5.05
2023-05-06T16:16:40.556Z,4.25
2023-05-06T16:19:07.828Z,5.00
2023-05-06T16:21:34.870Z,4.88
2023-05-06T16:24:02.509Z,4.97
2023-05-06T16:26:32.240Z,5.32
2023-05-06T16:29:01.454Z,6.03
2023-05-06T16:31:28.682Z,4.65
2023-05-06T16:33:56.472Z,5.57
2023-05-06T16:36:23.761Z,4.80
2023-05-06T16:38:50.628Z,4.82
2023-05-06T16:41:17.684Z,4.90
2023-05-06T16:43:44.472Z,4.88
2023-05-06T16:46:11.605Z,5.07
2023-05-06T16:48:38.526Z,5.50
2023-05-06T16:51:05.673Z,5.20
2023-05-06T16:53:32.463Z,5.50
2023-05-06T16:56:01.860Z,5.30
2023-05-06T16:58:29.937Z,5.47
2023-05-06T17:00:57.079Z,4.82
2023-05-06T17:03:24.033Z,5.50
2023-05-06T17:05:51.499Z,5.20
2023-05-06T17:08:18.861Z,5.88
2023-05-06T17:10:46.148Z,5.20
2023-05-06T17:13:13.499Z,5.80
2023-05-06T17:15:40.735Z,5.78
2023-05-06T17:18:07.543Z,6.32
2023-05-06T17:20:51.552Z,6.20
2023-05-06T17:23:21.799Z,5.93
2023-05-06T17:25:48.918Z,6.90
2023-05-06T17:28:16.866Z,7.22
2023-05-06T17:30:45.747Z,7.00
2023-05-06T17:33:12.932Z,6.93
2023-05-06T17:35:41.165Z,7.03
2023-05-06T17:38:08.238Z,6.55
2023-05-06T17:40:35.419Z,6.90
2023-05-06T17:43:02.329Z,8.20
2023-05-06T17:45:29.526Z,8.07
2023-05-06T17:47:56.723Z,8.95
2023-05-06T17:50:24.012Z,6.70
2023-05-06T17:52:52.899Z,7.47
2023-05-06T17:55:23.180Z,11.15
2023-05-06T17:57:50.356Z,11.50
2023-05-06T18:00:18.532Z,10.23
2023-05-06T18:02:46.006Z,9.82
2023-05-06T18:05:37.234Z,9.77
2023-05-06T18:08:04.876Z,8.35
2023-05-06T18:10:32.721Z,7.28
2023-05-06T18:12:59.934Z,6.97
2023-05-06T18:15:26.704Z,8.02
2023-05-06T18:17:56.706Z,7.72
2023-05-06T18:20:23.766Z,7.68
2023-05-06T18:22:51.035Z,7.53
2023-05-06T18:25:21.011Z,7.80
2023-05-06T18:27:52.147Z,8.45
2023-05-06T18:30:19.007Z,8.15
2023-05-06T18:32:51.013Z,7.60
2023-05-06T18:35:20.277Z,9.20
2023-05-06T18:37:52.348Z,7.72
2023-05-06T18:40:19.281Z,8.82
2023-05-06T18:42:47.066Z,8.48
2023-05-06T18:45:13.993Z,8.18
2023-05-06T18:47:41.145Z,8.90
2023-05-06T18:50:08.591Z,8.60
2023-05-06T18:52:38.742Z,8.45
2023-05-06T18:55:06.021Z,7.22
2023-05-06T18:57:33.754Z,8.05
2023-05-06T19:00:00.693Z,8.95
2023-05-06T19:02:28.009Z,8.38
2023-05-06T19:04:55.411Z,8.55
2023-05-06T19:07:22.660Z,8.60
2023-05-06T19:09:49.429Z,8.85
2023-05-06T19:12:16.604Z,9.20
2023-05-06T19:14:46.389Z,9.45
2023-05-06T19:17:14.349Z,8.75
2023-05-06T19:19:42.449Z,8.90
2023-05-06T19:22:09.567Z,8.55
2023-05-06T19:24:36.400Z,9.27
2023-05-06T19:27:03.533Z,9.38
2023-05-06T19:29:30.354Z,8.65
2023-05-06T19:32:02.282Z,9.02
2023-05-06T19:34:32.177Z,8.05
2023-05-06T19:36:59.262Z,8.00
2023-05-06T19:39:26.180Z,8.98
2023-05-06T19:41:55.067Z,8.77
2023-05-06T19:44:21.853Z,8.85
2023-05-06T19:46:53.678Z,9.05
2023-05-06T19:49:27.809Z,8.10
2023-05-06T19:51:54.875Z,8.77
2023-05-06T19:54:22.436Z,8.13
2023-05-06T19:56:52.355Z,8.80
2023-05-06T19:59:19.205Z,9.20
2023-05-06T20:01:46.316Z,10.80
2023-05-06T20:04:13.162Z,9.50
2023-05-06T20:06:40.550Z,9.82
2023-05-06T20:09:07.416Z,10.20
2023-05-06T20:11:34.632Z,10.95
2023-05-06T20:14:01.746Z,9.57
2023-05-06T20:16:28.855Z,10.20
2023-05-06T20:18:56.080Z,9.40
2023-05-06T20:21:23.118Z,10.68
2023-05-06T20:23:50.047Z,9.73
2023-05-06T20:26:17.437Z,9.50
2023-05-06T20:28:47.244Z,7.55
2023-05-06T20:31:14.356Z,7.50
2023-05-06T20:33:41.697Z,7.00
2023-05-06T20:36:09.235Z,7.07
2023-05-06T20:38:36.595Z,6.53
2023-05-06T20:41:03.909Z,7.25
2023-05-06T20:43:31.721Z,8.02
2023-05-06T20:45:58.929Z,7.93
2023-05-06T20:48:27.790Z,7.70
2023-05-06T20:50:57.044Z,8.20
2023-05-06T20:53:24.964Z,7.85
2023-05-06T20:55:52.233Z,8.90
2023-05-06T20:58:20.308Z,9.13
2023-05-06T21:00:47.449Z,8.43
2023-05-06T21:03:14.515Z,8.57
2023-05-06T21:05:41.705Z,10.35
2023-05-06T21:08:08.819Z,11.38
2023-05-06T21:10:36.218Z,11.88
2023-05-06T21:13:03.072Z,11.30
2023-05-06T21:15:30.408Z,11.20
2023-05-06T21:17:57.226Z,12.52
2023-05-06T21:20:24.341Z,12.25
2023-05-06T21:22:51.224Z,12.07
2023-05-06T21:25:18.521Z,13.18
2023-05-06T21:27:48.293Z,11.20
2023-05-06T21:30:16.624Z,11.88
2023-05-06T21:32:43.939Z,12.35
2023-05-06T21:35:11.270Z,11.50
2023-05-06T21:37:38.363Z,12.40
2023-05-06T21:40:06.545Z,12.25
2023-05-06T21:42:33.368Z,12.98
2023-05-06T21:45:03.707Z,11.73
2023-05-06T21:47:30.550Z,12.00
2023-05-06T21:50:00.334Z,12.38
2023-05-06T21:52:27.141Z,11.60
2023-05-06T21:54:54.836Z,13.18
2023-05-06T21:57:24.771Z,13.75
2023-05-06T21:59:52.123Z,12.70
2023-05-06T22:02:18.984Z,13.02
2023-05-06T22:04:49.017Z,12.48
2023-05-06T22:07:16.495Z,12.65
2023-05-06T22:09:46.490Z,11.90
2023-05-06T22:12:15.425Z,11.05
2023-05-06T22:14:42.540Z,11.80
2023-05-06T22:17:10.875Z,12.40
2023-05-06T22:19:38.516Z,9.88
2023-05-06T22:22:08.697Z,10.35
2023-05-06T22:24:36.029Z,9.15
2023-05-06T22:27:03.128Z,10.95
2023-05-06T22:29:30.346Z,9.23
2023-05-06T22:31:57.379Z,7.72
2023-05-06T22:34:24.655Z,7.35
2023-05-06T22:36:51.528Z,7.20
2023-05-06T22:39:18.595Z,6.72
2023-05-06T22:41:46.074Z,7.13
2023-05-06T22:44:13.795Z,6.85
2023-05-06T22:46:40.573Z,6.93
2023-05-06T22:49:10.761Z,6.90
2023-05-06T22:51:37.556Z,6.68
2023-05-06T22:54:04.673Z,6.80
2023-05-06T22:56:31.570Z,7.05
2023-05-06T22:58:58.638Z,6.88
2023-05-06T23:01:31.618Z,7.32
2023-05-06T23:03:59.696Z,7.03
2023-05-06T23:06:31.105Z,6.80
2023-05-06T23:08:58.257Z,6.55
2023-05-06T23:11:25.616Z,7.57
2023-05-06T23:13:52.663Z,8.15
2023-05-06T23:16:21.041Z,7.78
2023-05-06T23:18:48.287Z,7.53
2023-05-06T23:21:15.200Z,8.13
2023-05-06T23:23:43.464Z,7.03
2023-05-06T23:26:12.838Z,7.38
2023-05-06T23:28:42.632Z,7.28
2023-05-06T23:31:09.525Z,6.43
2023-05-06T23:33:36.576Z,7.35
2023-05-06T23:36:06.471Z,6.57
2023-05-06T23:38:34.743Z,7.00
2023-05-06T23:41:01.568Z,6.95
2023-05-06T23:43:28.678Z,6.75
2023-05-06T23:45:55.769Z,7.55
2023-05-06T23:48:22.909Z,7.38
2023-05-06T23:50:49.696Z,7.38
2023-05-06T23:53:16.907Z,8.35
2023-05-06T23:55:43.957Z,7.63
2023-05-06T23:58:13.146Z,7.60
